createdAt,value
2018-05-02T00:02:16.154Z,12.67
2018-05-02T00:04:43.540Z,12.90
2018-05-02T00:07:10.922Z,13.80
2018-05-02T00:09:38.321Z,12.23
2018-05-02T00:12:05.698Z,12.50
2018-05-02T00:14:33.090Z,12.40
2018-05-02T00:17:00.486Z,12.80
2018-05-02T00:19:27.871Z,12.37
2018-05-02T00:21:55.247Z,13.33
2018-05-02T00:24:22.638Z,13.63
2018-05-02T00:26:50.023Z,12.97
2018-05-02T00:29:17.402Z,13.07
2018-05-02T00:31:44.782Z,12.67
2018-05-02T00:34:12.171Z,13.07
2018-05-02T00:36:39.735Z,12.70
2018-05-02T00:39:07.609Z,13.13
2018-05-02T00:41:34.994Z,12.97
2018-05-02T00:44:02.448Z,13.00
2018-05-02T00:46:29.852Z,14.40
2018-05-02T00:49:08.795Z,13.57
2018-05-02T00:51:36.183Z,13.40
2018-05-02T00:54:03.611Z,14.17
2018-05-02T00:56:31.003Z,13.83
2018-05-02T00:58:58.383Z,13.80
2018-05-02T01:01:25.771Z,13.03
2018-05-02T01:03:53.166Z,13.23
2018-05-02T01:06:20.535Z,13.40
2018-05-02T01:08:47.911Z,14.20
2018-05-02T01:11:15.307Z,13.20
2018-05-02T01:13:42.693Z,13.20
2018-05-02T01:16:10.075Z,12.60
2018-05-02T01:18:37.454Z,13.00
2018-05-02T01:21:04.864Z,12.70
2018-05-02T01:23:32.223Z,13.97
2018-05-02T01:25:59.602Z,13.77
2018-05-02T01:28:26.995Z,14.07
2018-05-02T01:30:54.447Z,14.30
2018-05-02T01:33:21.822Z,12.87
2018-05-02T01:35:49.227Z,13.93
2018-05-02T01:38:16.611Z,14.07
2018-05-02T01:40:44.004Z,13.80
2018-05-02T01:43:11.399Z,13.47
2018-05-02T01:45:38.791Z,13.80
2018-05-02T01:48:06.177Z,13.47
2018-05-02T01:50:33.567Z,14.20
2018-05-02T01:53:00.943Z,13.90
2018-05-02T01:55:28.327Z,13.63
2018-05-02T01:57:55.726Z,14.33
2018-05-02T02:00:23.358Z,13.90
2018-05-02T02:02:50.748Z,14.40
2018-05-02T02:05:18.123Z,13.57
2018-05-02T02:07:45.503Z,13.70
2018-05-02T02:10:12.895Z,13.77
2018-05-02T02:12:40.270Z,13.33
2018-05-02T02:15:07.665Z,13.97
2018-05-02T02:17:35.041Z,14.30
2018-05-02T02:20:02.436Z,14.43
2018-05-02T02:22:29.819Z,14.50
2018-05-02T02:24:57.209Z,14.73
2018-05-02T02:27:24.587Z,15.33
2018-05-02T02:29:51.968Z,15.23
2018-05-02T02:32:19.357Z,15.40
2018-05-02T02:34:46.740Z,16.10
2018-05-02T02:37:14.115Z,14.50
2018-05-02T02:39:41.507Z,15.50
2018-05-02T02:42:08.883Z,15.37
2018-05-02T02:44:36.269Z,14.73
2018-05-02T02:47:03.655Z,14.93
2018-05-02T02:49:31.030Z,15.00
2018-05-02T02:51:58.419Z,15.97
2018-05-02T02:54:25.796Z,15.40
2018-05-02T02:56:53.179Z,15.60
2018-05-02T02:59:20.558Z,15.00
2018-05-02T03:01:47.946Z,14.23
2018-05-02T03:04:15.491Z,14.43
2018-05-02T03:06:42.879Z,15.47
2018-05-02T03:09:10.259Z,14.83
2018-05-02T03:11:37.647Z,15.00
2018-05-02T03:14:05.027Z,14.07
2018-05-02T03:16:32.410Z,16.10
2018-05-02T03:18:59.792Z,15.00
2018-05-02T03:21:27.175Z,15.40
2018-05-02T03:23:54.554Z,14.90
2018-05-02T03:26:21.945Z,14.40
2018-05-02T03:28:49.326Z,14.40
2018-05-02T03:31:16.704Z,15.20
2018-05-02T03:33:44.091Z,14.53
2018-05-02T03:36:11.480Z,14.43
2018-05-02T03:38:38.863Z,14.23
2018-05-02T03:41:06.239Z,14.77
2018-05-02T03:43:33.623Z,14.13
2018-05-02T03:46:00.999Z,14.47
2018-05-02T03:48:28.383Z,15.50
2018-05-02T03:50:55.758Z,15.30
2018-05-02T03:53:23.143Z,15.30
2018-05-02T03:55:50.524Z,15.40
2018-05-02T03:58:17.907Z,14.87
2018-05-02T04:00:57.122Z,14.40
2018-05-02T04:03:36.139Z,13.00
2018-05-02T04:09:02.315Z,13.03
2018-05-02T04:11:29.695Z,14.03
2018-05-02T04:13:57.143Z,13.60
2018-05-02T04:16:24.519Z,13.40
2018-05-02T04:18:51.910Z,12.13
2018-05-02T04:21:19.295Z,13.77
2018-05-02T04:23:46.684Z,14.30
2018-05-02T04:26:14.098Z,13.60
2018-05-02T04:28:41.479Z,13.40
2018-05-02T04:31:08.864Z,13.90
2018-05-02T04:33:36.242Z,14.60
2018-05-02T04:36:03.627Z,13.90
2018-05-02T04:38:31.003Z,14.37
2018-05-02T04:40:58.415Z,15.00
2018-05-02T04:43:25.771Z,14.20
2018-05-02T04:45:53.154Z,13.93
2018-05-02T04:48:20.951Z,14.57
2018-05-02T04:50:48.354Z,13.83
2018-05-02T04:53:15.735Z,13.30
2018-05-02T04:55:43.115Z,14.77
2018-05-02T04:58:10.490Z,13.70
2018-05-02T05:00:37.995Z,16.30
2018-05-02T05:03:05.370Z,13.50
2018-05-02T05:05:32.766Z,13.53
2018-05-02T05:08:00.143Z,15.77
2018-05-02T05:10:27.527Z,13.40
2018-05-02T05:12:54.962Z,13.77
2018-05-02T05:15:22.343Z,13.70
2018-05-02T05:17:49.738Z,13.80
2018-05-02T05:20:17.129Z,13.80
2018-05-02T05:22:44.511Z,13.20
2018-05-02T05:25:11.898Z,13.10
2018-05-02T05:27:39.286Z,12.90
2018-05-02T05:30:06.687Z,12.40
2018-05-02T05:32:34.078Z,11.67
2018-05-02T05:35:01.455Z,12.43
2018-05-02T05:37:28.839Z,13.43
2018-05-02T05:39:56.218Z,13.43
2018-05-02T05:42:23.608Z,12.80
2018-05-02T05:44:50.994Z,13.13
2018-05-02T05:47:18.382Z,13.90
2018-05-02T05:49:45.774Z,13.23
2018-05-02T05:52:13.165Z,13.30
2018-05-02T05:54:40.558Z,14.03
2018-05-02T05:57:07.938Z,14.03
2018-05-02T05:59:35.323Z,13.07
2018-05-02T06:02:02.707Z,13.67
2018-05-02T06:04:30.095Z,14.93
2018-05-02T06:06:57.484Z,14.17
2018-05-02T06:09:24.867Z,13.70
2018-05-02T06:11:52.255Z,13.90
2018-05-02T06:14:19.643Z,13.73
2018-05-02T06:16:47.023Z,14.37
2018-05-02T06:19:14.415Z,14.63
2018-05-02T06:21:41.798Z,14.60
2018-05-02T06:24:09.194Z,14.87
2018-05-02T06:26:36.658Z,13.03
2018-05-02T06:29:04.044Z,13.30
2018-05-02T06:31:31.422Z,13.87
2018-05-02T06:33:58.849Z,14.00
2018-05-02T06:36:26.230Z,13.73
2018-05-02T06:38:53.643Z,13.70
2018-05-02T06:41:21.033Z,13.90
2018-05-02T06:43:48.423Z,14.20
2018-05-02T06:46:15.799Z,14.00
2018-05-02T06:48:43.190Z,14.07
2018-05-02T06:51:10.575Z,13.97
2018-05-02T06:53:37.976Z,13.67
2018-05-02T06:56:05.375Z,13.70
2018-05-02T06:58:32.764Z,13.10
2018-05-02T07:01:00.220Z,13.83
2018-05-02T07:03:27.607Z,15.53
2018-05-02T07:05:54.298Z,14.57
2018-05-02T07:08:21.693Z,15.23
2018-05-02T07:10:49.071Z,14.57
2018-05-02T07:13:16.479Z,13.20
2018-05-02T07:15:43.867Z,14.67
2018-05-02T07:18:11.599Z,14.40
2018-05-02T07:20:38.993Z,13.23
2018-05-02T07:23:06.447Z,13.70
2018-05-02T07:25:33.850Z,12.60
2018-05-02T07:28:01.250Z,13.80
2018-05-02T07:30:28.631Z,12.30
2018-05-02T07:32:56.128Z,13.67
2018-05-02T07:35:23.428Z,13.90
2018-05-02T07:37:50.807Z,13.97
2018-05-02T07:40:18.196Z,13.87
2018-05-02T07:42:45.591Z,14.27
2018-05-02T07:45:12.987Z,14.00
2018-05-02T07:47:40.682Z,13.67
2018-05-02T07:50:08.071Z,12.97
2018-05-02T07:52:35.519Z,13.50
2018-05-02T07:55:02.959Z,12.67
2018-05-02T07:57:30.294Z,13.37
2018-05-02T07:59:57.689Z,13.00
2018-05-02T08:02:25.070Z,12.40
2018-05-02T08:04:52.459Z,11.97
2018-05-02T08:07:19.839Z,11.67
2018-05-02T08:09:47.231Z,12.70
2018-05-02T08:12:14.618Z,12.97
2018-05-02T08:14:42.015Z,12.40
2018-05-02T08:17:09.396Z,12.63
2018-05-02T08:19:36.790Z,12.10
2018-05-02T08:22:04.173Z,11.53
2018-05-02T08:24:31.713Z,11.83
2018-05-02T08:26:59.095Z,12.90
2018-05-02T08:29:26.479Z,12.27
2018-05-02T08:31:53.866Z,13.27
2018-05-02T08:34:21.259Z,12.20
2018-05-02T08:36:48.651Z,11.90
2018-05-02T08:39:16.035Z,12.03
2018-05-02T08:41:43.432Z,12.33
2018-05-02T08:44:10.806Z,11.50
2018-05-02T08:46:38.198Z,11.30
2018-05-02T08:49:05.579Z,11.57
2018-05-02T08:51:32.970Z,11.80
2018-05-02T08:54:00.353Z,11.10
2018-05-02T08:56:27.750Z,10.20
2018-05-02T08:58:55.133Z,10.37
2018-05-02T09:01:22.570Z,10.13
2018-05-02T09:03:49.957Z,10.50
2018-05-02T09:06:17.326Z,10.83
2018-05-02T09:08:44.727Z,10.23
2018-05-02T09:11:12.111Z,10.50
2018-05-02T09:13:39.503Z,10.47
2018-05-02T09:16:06.895Z,10.83
2018-05-02T09:18:34.270Z,10.37
2018-05-02T09:21:01.663Z,9.20
2018-05-02T09:23:29.036Z,9.80
2018-05-02T09:25:56.418Z,9.13
2018-05-02T09:28:23.808Z,10.40
2018-05-02T09:30:51.206Z,9.70
2018-05-02T09:33:18.611Z,10.20
2018-05-02T09:35:46.025Z,10.27
2018-05-02T09:38:13.403Z,10.93
2018-05-02T09:40:40.789Z,9.10
2018-05-02T09:43:08.210Z,10.27
2018-05-02T09:45:35.583Z,9.07
2018-05-02T09:48:02.955Z,8.80
2018-05-02T09:50:30.433Z,8.90
2018-05-02T09:52:57.809Z,9.40
2018-05-02T09:55:25.190Z,8.50
2018-05-02T09:57:52.578Z,7.70
2018-05-02T10:00:19.959Z,7.73
2018-05-02T10:02:47.342Z,7.70
2018-05-02T10:05:14.726Z,7.30
2018-05-02T10:07:42.174Z,8.67
2018-05-02T10:10:09.563Z,7.27
2018-05-02T10:12:36.946Z,8.50
2018-05-02T10:15:04.320Z,8.40
2018-05-02T10:17:32.093Z,8.23
2018-05-02T10:19:59.456Z,8.70
2018-05-02T10:22:26.826Z,8.43
2018-05-02T10:24:54.207Z,8.73
2018-05-02T10:27:21.584Z,8.60
2018-05-02T10:29:48.972Z,8.37
2018-05-02T10:32:16.347Z,9.13
2018-05-02T10:34:43.727Z,8.83
2018-05-02T10:37:11.111Z,9.30
2018-05-02T10:39:38.480Z,9.07
2018-05-02T10:42:05.858Z,9.70
2018-05-02T10:44:33.239Z,8.80
2018-05-02T10:47:00.610Z,8.70
2018-05-02T10:49:28.013Z,10.03
2018-05-02T10:51:55.386Z,9.27
2018-05-02T10:54:22.773Z,9.73
2018-05-02T10:56:50.147Z,8.40
2018-05-02T10:59:17.547Z,10.00
2018-05-02T11:01:44.918Z,9.63
2018-05-02T11:04:12.299Z,8.97
2018-05-02T11:06:39.679Z,9.00
2018-05-02T11:09:07.055Z,7.90
2018-05-02T11:11:34.435Z,9.03
2018-05-02T11:14:01.807Z,8.40
2018-05-02T11:16:29.194Z,8.03
2018-05-02T11:18:56.570Z,7.67
2018-05-02T11:21:23.952Z,9.20
2018-05-02T11:23:51.327Z,8.60
2018-05-02T11:26:18.712Z,9.97
2018-05-02T11:28:46.100Z,9.33
2018-05-02T11:31:13.479Z,10.33
2018-05-02T11:33:40.863Z,9.67
2018-05-02T11:36:08.246Z,9.60
2018-05-02T11:38:35.628Z,9.80
2018-05-02T11:41:03.042Z,9.40
2018-05-02T11:43:30.418Z,9.73
2018-05-02T11:45:57.804Z,8.17
2018-05-02T11:48:25.183Z,8.60
2018-05-02T11:50:52.559Z,8.87
2018-05-02T11:53:19.981Z,9.97
2018-05-02T11:55:47.362Z,9.00
2018-05-02T11:58:14.745Z,9.47
2018-05-02T12:00:42.421Z,9.83
2018-05-02T12:03:09.806Z,9.03
2018-05-02T12:05:37.184Z,9.63
2018-05-02T12:08:04.563Z,9.80
2018-05-02T12:10:31.958Z,10.17
2018-05-02T12:12:59.336Z,9.53
2018-05-02T12:15:26.711Z,9.30
2018-05-02T12:17:54.119Z,9.50
2018-05-02T12:20:21.502Z,10.83
2018-05-02T12:22:48.879Z,8.73
2018-05-02T12:25:16.266Z,11.37
2018-05-02T12:27:43.723Z,11.97
2018-05-02T12:30:11.039Z,12.37
2018-05-02T12:32:38.418Z,11.53
2018-05-02T12:35:05.811Z,11.77
2018-05-02T12:37:33.254Z,10.80
2018-05-02T12:40:00.659Z,10.60
2018-05-02T12:42:28.047Z,9.23
2018-05-02T12:44:55.428Z,11.53
2018-05-02T12:47:22.815Z,10.80
2018-05-02T12:49:50.198Z,10.87
2018-05-02T12:52:17.587Z,11.00
2018-05-02T12:54:44.975Z,10.67
2018-05-02T12:57:12.359Z,11.03
2018-05-02T12:59:39.754Z,10.47
2018-05-02T13:02:07.147Z,10.90
2018-05-02T13:04:34.522Z,10.80
2018-05-02T13:07:01.927Z,10.10
2018-05-02T13:09:29.312Z,10.63
2018-05-02T13:11:56.706Z,10.73
2018-05-02T13:14:24.088Z,9.73
2018-05-02T13:16:51.487Z,10.00
2018-05-02T13:19:18.862Z,10.43
2018-05-02T13:21:46.242Z,9.47
2018-05-02T13:24:13.623Z,10.03
2018-05-02T13:26:41.006Z,9.70
2018-05-02T13:29:08.390Z,10.20
2018-05-02T13:31:35.782Z,8.00
2018-05-02T13:34:03.163Z,9.53
2018-05-02T13:36:30.542Z,8.77
2018-05-02T13:38:57.927Z,8.60
2018-05-02T13:41:25.706Z,9.43
2018-05-02T13:43:53.136Z,9.47
2018-05-02T13:46:20.471Z,9.97
2018-05-02T13:48:47.854Z,10.00
2018-05-02T13:51:15.230Z,9.10
2018-05-02T13:53:42.620Z,10.50
2018-05-02T13:56:09.998Z,9.27
2018-05-02T13:58:37.386Z,8.70
2018-05-02T14:01:04.758Z,8.43
2018-05-02T14:03:32.139Z,8.50
2018-05-02T14:05:59.519Z,9.10
2018-05-02T14:08:26.905Z,8.73
2018-05-02T14:10:54.374Z,8.63
2018-05-02T14:13:21.754Z,8.87
2018-05-02T14:15:49.141Z,10.00
2018-05-02T14:18:16.538Z,10.63
2018-05-02T14:20:43.914Z,9.30
2018-05-02T14:23:11.290Z,7.90
2018-05-02T14:25:38.680Z,8.53
2018-05-02T14:28:06.052Z,9.43
2018-05-02T14:30:33.447Z,10.60
2018-05-02T14:33:00.823Z,9.33
2018-05-02T14:35:28.210Z,8.93
2018-05-02T14:37:55.587Z,9.17
2018-05-02T14:40:22.966Z,9.27
2018-05-02T14:42:50.358Z,9.37
2018-05-02T14:45:17.824Z,10.50
2018-05-02T14:47:45.175Z,9.10
2018-05-02T14:50:13.579Z,7.77
2018-05-02T14:52:40.964Z,9.50
2018-05-02T14:55:08.434Z,9.83
2018-05-02T14:57:35.824Z,10.10
2018-05-02T15:00:03.240Z,9.90
2018-05-02T15:02:30.616Z,9.80
2018-05-02T15:04:58.003Z,9.93
2018-05-02T15:07:25.372Z,9.20
2018-05-02T15:09:52.779Z,10.03
2018-05-02T15:12:20.178Z,10.63
2018-05-02T15:14:47.557Z,10.03
2018-05-02T15:17:14.939Z,9.70
2018-05-02T15:19:42.500Z,10.70
2018-05-02T15:22:11.083Z,10.60
2018-05-02T15:24:38.515Z,10.70
2018-05-02T15:27:05.843Z,10.93
2018-05-02T15:29:33.279Z,9.77
2018-05-02T15:32:00.666Z,10.40
2018-05-02T15:34:28.055Z,10.50
2018-05-02T15:36:55.440Z,9.73
2018-05-02T15:39:22.827Z,10.37
2018-05-02T15:41:50.203Z,9.77
2018-05-02T15:44:17.594Z,10.00
2018-05-02T15:46:44.978Z,9.67
2018-05-02T15:49:12.413Z,9.27
2018-05-02T15:51:39.734Z,9.13
2018-05-02T15:54:07.128Z,9.70
2018-05-02T15:56:34.510Z,10.20
2018-05-02T15:59:01.896Z,9.23
2018-05-02T16:01:29.275Z,10.30
2018-05-02T16:03:56.679Z,10.37
2018-05-02T16:06:24.048Z,9.93
2018-05-02T16:08:51.448Z,9.60
2018-05-02T16:11:18.975Z,10.10
2018-05-02T16:13:46.363Z,10.20
2018-05-02T16:16:13.743Z,9.77
2018-05-02T16:18:41.133Z,9.60
2018-05-02T16:21:08.506Z,9.70
2018-05-02T16:23:35.896Z,10.47
2018-05-02T16:26:03.278Z,9.90
2018-05-02T16:28:30.663Z,10.70
2018-05-02T16:30:58.054Z,10.40
2018-05-02T16:33:25.443Z,10.90
2018-05-02T16:35:52.840Z,9.80
2018-05-02T16:38:20.218Z,10.37
2018-05-02T16:40:47.611Z,10.40
2018-05-02T16:43:14.994Z,10.00
2018-05-02T16:45:42.382Z,10.80
2018-05-02T16:48:09.759Z,9.93
2018-05-02T16:50:37.143Z,9.63
2018-05-02T16:53:04.531Z,10.40
2018-05-02T16:55:31.944Z,11.00
2018-05-02T16:57:59.319Z,10.87
2018-05-02T17:00:26.720Z,10.87
2018-05-02T17:02:54.114Z,10.27
2018-05-02T17:05:21.533Z,12.07
2018-05-02T17:07:48.931Z,10.97
2018-05-02T17:10:16.315Z,10.80
2018-05-02T17:12:43.709Z,11.30
2018-05-02T17:15:11.099Z,9.90
2018-05-02T17:17:38.891Z,9.73
2018-05-02T17:20:06.280Z,10.17
2018-05-02T17:22:33.803Z,11.27
2018-05-02T17:25:01.212Z,10.77
2018-05-02T17:27:28.606Z,11.10
2018-05-02T17:29:56.054Z,11.30
2018-05-02T17:32:23.435Z,11.80
2018-05-02T17:34:51.295Z,11.30
2018-05-02T17:37:18.667Z,11.07
2018-05-02T17:39:46.049Z,10.00
2018-05-02T17:42:13.439Z,11.53
2018-05-02T17:44:40.817Z,9.70
2018-05-02T17:47:08.207Z,11.10
2018-05-02T17:49:35.636Z,10.57
2018-05-02T17:52:03.518Z,10.10
2018-05-02T17:54:30.907Z,10.03
2018-05-02T17:56:58.282Z,9.87
2018-05-02T17:59:25.676Z,10.27
2018-05-02T18:01:53.067Z,10.60
2018-05-02T18:04:20.475Z,10.83
2018-05-02T18:06:47.858Z,10.30
2018-05-02T18:09:15.247Z,11.17
2018-05-02T18:11:42.632Z,10.40
2018-05-02T18:14:10.026Z,11.87
2018-05-02T18:16:37.407Z,10.60
2018-05-02T18:19:04.799Z,11.27
2018-05-02T18:21:32.194Z,11.07
2018-05-02T18:23:59.582Z,12.17
2018-05-02T18:26:27.039Z,11.60
2018-05-02T18:28:54.428Z,11.60
2018-05-02T18:31:21.815Z,11.43
2018-05-02T18:33:49.254Z,11.30
2018-05-02T18:36:16.636Z,11.90
2018-05-02T18:38:44.031Z,11.33
2018-05-02T18:41:11.415Z,11.07
2018-05-02T18:43:38.815Z,11.60
2018-05-02T18:46:06.202Z,11.63
2018-05-02T18:48:33.600Z,11.23
2018-05-02T18:51:00.986Z,10.70
2018-05-02T18:53:28.395Z,10.77
2018-05-02T18:55:55.783Z,10.80
2018-05-02T18:58:23.169Z,10.90
2018-05-02T19:00:50.568Z,10.93
2018-05-02T19:03:18.894Z,11.27
2018-05-02T19:05:46.351Z,11.30
2018-05-02T19:08:13.752Z,10.80
2018-05-02T19:10:41.155Z,10.80
2018-05-02T19:13:08.571Z,11.47
2018-05-02T19:15:36.981Z,10.70
2018-05-02T19:18:09.835Z,10.97
2018-05-02T19:20:37.229Z,10.20
2018-05-02T19:23:04.627Z,10.47
2018-05-02T19:25:37.607Z,9.70
2018-05-02T19:28:05.060Z,10.20
2018-05-02T19:30:32.435Z,11.13
2018-05-02T19:33:05.355Z,10.33
2018-05-02T19:35:32.770Z,9.53
2018-05-02T19:38:00.164Z,10.93
2018-05-02T19:40:33.117Z,10.30
2018-05-02T19:43:05.979Z,10.50
2018-05-02T19:45:33.495Z,11.80
2018-05-02T19:48:00.876Z,11.30
2018-05-02T19:50:28.263Z,11.43
2018-05-02T19:52:55.942Z,11.13
2018-05-02T19:55:23.330Z,12.10
2018-05-02T19:57:50.720Z,11.70
2018-05-02T20:00:23.737Z,11.03
2018-05-02T20:02:56.779Z,11.40
2018-05-02T20:05:24.174Z,11.30
2018-05-02T20:07:51.560Z,11.70
2018-05-02T20:10:24.554Z,11.13
2018-05-02T20:12:57.647Z,11.27
2018-05-02T20:15:25.100Z,11.50
2018-05-02T20:17:52.506Z,11.60
2018-05-02T20:20:19.892Z,10.20
2018-05-02T20:22:47.294Z,10.93
2018-05-02T20:25:14.853Z,10.70
2018-05-02T20:27:42.087Z,10.73
2018-05-02T20:30:09.471Z,10.00
2018-05-02T20:32:36.882Z,9.77
2018-05-02T20:35:04.267Z,10.60
2018-05-02T20:37:31.695Z,10.40
2018-05-02T20:39:59.062Z,10.70
2018-05-02T20:42:26.487Z,11.67
2018-05-02T20:44:53.871Z,10.90
2018-05-02T20:47:21.251Z,11.70
2018-05-02T20:49:48.655Z,11.90
2018-05-02T20:52:16.208Z,11.80
2018-05-02T20:54:43.613Z,12.10
2018-05-02T20:57:10.990Z,12.20
2018-05-02T20:59:38.372Z,12.30
2018-05-02T21:02:05.766Z,11.80
2018-05-02T21:04:33.147Z,12.00
2018-05-02T21:07:00.535Z,12.90
2018-05-02T21:09:28.083Z,11.40
2018-05-02T21:11:55.466Z,11.70
2018-05-02T21:14:23.319Z,11.13
2018-05-02T21:16:50.791Z,11.60
2018-05-02T21:19:18.210Z,12.33
2018-05-02T21:21:45.674Z,11.37
2018-05-02T21:24:13.060Z,11.83
2018-05-02T21:26:40.455Z,11.90
2018-05-02T21:29:07.838Z,12.57
2018-05-02T21:31:35.274Z,12.03
2018-05-02T21:34:02.695Z,13.10
2018-05-02T21:36:30.099Z,12.43
2018-05-02T21:38:57.499Z,12.43
2018-05-02T21:41:24.888Z,11.87
2018-05-02T21:43:52.271Z,12.20
2018-05-02T21:46:19.655Z,11.90
2018-05-02T21:48:47.163Z,12.63
2018-05-02T21:51:14.566Z,12.60
2018-05-02T21:53:42.016Z,12.93
2018-05-02T21:56:09.403Z,12.50
2018-05-02T21:58:36.814Z,13.67
2018-05-02T22:01:04.203Z,13.53
2018-05-02T22:03:31.591Z,12.50
2018-05-02T22:05:59.006Z,12.77
2018-05-02T22:08:26.390Z,12.67
2018-05-02T22:10:53.777Z,12.80
2018-05-02T22:13:21.166Z,13.20
2018-05-02T22:15:48.555Z,13.13
2018-05-02T22:18:16.091Z,12.20
2018-05-02T22:20:43.472Z,12.50
2018-05-02T22:23:10.871Z,12.57
2018-05-02T22:25:38.262Z,12.70
2018-05-02T22:28:05.714Z,13.20
2018-05-02T22:30:33.115Z,13.50
2018-05-02T22:33:00.504Z,13.00
2018-05-02T22:35:27.904Z,12.50
2018-05-02T22:37:55.287Z,13.50
2018-05-02T22:40:22.686Z,13.33
2018-05-02T22:42:50.120Z,13.43
2018-05-02T22:45:17.502Z,13.70
2018-05-02T22:47:44.981Z,13.67
2018-05-02T22:50:12.384Z,13.50
2018-05-02T22:52:39.747Z,12.97
2018-05-02T22:55:07.128Z,13.57
2018-05-02T22:57:34.525Z,13.70
2018-05-02T23:00:01.266Z,12.60
2018-05-02T23:02:28.659Z,14.40
2018-05-02T23:04:56.060Z,13.70
2018-05-02T23:07:23.446Z,13.63
2018-05-02T23:09:50.840Z,13.70
2018-05-02T23:12:18.240Z,14.23
2018-05-02T23:14:45.632Z,13.60
2018-05-02T23:17:13.015Z,13.63
2018-05-02T23:19:40.475Z,13.73
2018-05-02T23:22:07.871Z,14.30
2018-05-02T23:24:35.255Z,14.20
2018-05-02T23:27:02.807Z,13.60
2018-05-02T23:29:30.191Z,13.83
2018-05-02T23:31:57.586Z,14.73
2018-05-02T23:34:24.971Z,14.80
2018-05-02T23:36:52.371Z,13.60
2018-05-02T23:39:19.763Z,14.30
2018-05-02T23:41:47.143Z,13.87
2018-05-02T23:44:14.548Z,15.23
2018-05-02T23:46:41.942Z,14.43
2018-05-02T23:49:09.358Z,14.37
2018-05-02T23:51:36.740Z,14.87
2018-05-02T23:54:04.134Z,13.90
2018-05-02T23:56:31.515Z,14.00
2018-05-02T23:58:58.902Z,14.20
